Kezdőlap
METAR-TAF:

METAR-TAF

Repülőterek :

El Oued, Algéria

földrajzi szélesség: 33-30-47N, földrajzi hosszúság: 006-46-57E, magasság: 62 m

Jelenlegi meteorológiai megfigyelések

A jelentés 59 perccel ezelõtt készült, 12:00 UTC
Keleti szél 7 kt, északkeleti és kelet-délkeleti között változik
Hőmérséklet 33°C
Páratartalom 20%
Légköri nyomás 1012 hPa
Látótávolság 10 km, vagy több
felhőtlen 1500 m magasságban, és nincs gomolyfelhõ

METAR: DAUO 301200Z 08007KT 050V110 CAVOK 33/07 Q1012

Idő: 13:59 (12:59 UTC)

Előrejelzés

A jelentés 1 órával és 59 perccel ezelõtt készült, 11:00 UTC
Az előrejelzés 30-én 12 óra UTC és 30-én 21 óra UTC között érvényes
Keleti szél 9 kt
Látótávolság 10 km, vagy több
felhőtlen 1500 m magasságban, és nincs gomolyfelhõ

TAF: DAUO 301100Z 3012/3021 10009KT CAVOK

Meteorológiai megfigyelések és előrejelzések több, mint 4000 repülőtéren (METAR és TAF jelentéseket).

A térképen piros és sárga pontok jelzik az elérhető meteorológiai állomásokat.

Mozgassa az egeret a pont fölött, hogy megjelenjen az állomás neve.

Azután kattintson az időjárási megfigyelések és előrejelzések megtekintéséhez.

A térkép megváltoztatása: kattintson a fekete keresztel jelölt zöld gombra ráközelítéshez, a vonallal jelölt zöld gombra távolításhoz, vagy a zöld nyilakra a szomszédos térképek eléréséhez.


METAR-TAF: